AirNav   Pilot Hours Calculator
 
 1034 users online  

38IS Winchester Airport
Nauvoo, Illinois, USA

GOING TO NAUVOO?


FAA INFORMATION EFFECTIVE 03 NOVEMBER 2022

Location

FAA Identifier: 38IS
Lat/Long: 40-34-55.1490N 091-21-30.5460W
40-34.919150N 091-21.509100W
40.5819858,-91.3584850
(estimated)
Elevation: 685 ft. / 209 m (estimated)
Variation: 03E (1985)
From city: 3 miles N of NAUVOO, IL
Time zone: UTC -6 (UTC -5 during Daylight Saving Time)
Zip code: 62354

Airport Operations

Airport use: Private use. Permission required prior to landing
Activation date: 02/1987
Control tower: no
ARTCC: CHICAGO CENTER
FSS: SAINT LOUIS FLIGHT SERVICE STATION
Attendance: UNATNDD
Segmented circle: no

Airport Communications

WX AWOS-3 at FSW (5 nm N): 120.925 (319-372-5147)
WX AWOS-3 at EOK (8 nm SW): 118.375 (319-524-7884)
WX ASOS at BRL (16 nm NE): 118.025 (319-752-6246)

Nearby radio navigation aids

VOR radial/distance  VOR name  Freq  Var
BRLr242/21.4BURLINGTON VOR/DME111.4005E

 
NDB name  Hdg/Dist  Freq  Var  ID
KEOKUK024/7.836602EEOK . --- -.-
BURNS247/11.639001EBR -... .-.
MACOMB275/36.625101EJZY .--- --.. -.--

Airport Services

Runway Information

Runway N/S

Dimensions: 1740 x 70 ft. / 530 x 21 m
Surface: turf
RUNWAY N  RUNWAY S
Traffic pattern: leftleft

Airport Ownership and Management from official FAA records

Ownership: Privately-owned
Owner: M. J. S. WINCHESTER
2609 N. COUNTY RD. 730
NAUVOO, IL 62354
Phone 217-453-6445

Airport Operational Statistics

Aircraft based on the field: 1
Single engine airplanes: 1
    

Additional Remarks

FOR CD CTC CHICAGO ARTCC AT 630-906-8921.

Instrument Procedures

There are no published instrument procedures at 38IS.

Some nearby airports with instrument procedures:

KFSW - Fort Madison Municipal Airport (5 nm N)
KEOK - Keokuk Municipal Airport (8 nm SW)
KBRL - Southeast Iowa Regional Airport (16 nm NE)
KMPZ - Mount Pleasant Municipal Airport (23 nm N)
6M6 - Lewis County Regional Airport (31 nm SW)
 
Loc | Ops | Rwys | IFR | FBO | Links
Com | Nav | Svcs | Stats | Notes
Area around 38IS (Winchester Airport)
 
Road maps at: MapQuest Bing Google
 
Aerial photo
No photo
 
Sectional chart

 
Airport distance calculator
Flying to Winchester Airport? Find the distance to fly.

From to 38IS

Sunrise and sunset
Times for 29-Nov-2022
 Local
(UTC-6)
 Zulu
(UTC)
Morning civil twilight06:3912:39
Sunrise07:0913:09
Sunset16:3922:39
Evening civil twilight17:0923:09

Current date and time
Zulu (UTC)  30-Nov-2022 01:01:43
Local (UTC-6)  29-Nov-2022 19:01:43
 
METAR
KFSW 
5nm N 
300055Z AUTO 30019G24KT 10SM 00/M03 A2969 RMK AO2
KEOK 
7nm S 
300055Z AUTO 30020G27KT 10SM OVC016 M00/M03 A2971 RMK A01
KBRL 
15nm NE 
300053Z AUTO 31016G27KT 10SM OVC016 00/M03 A2967 RMK AO2 PK WND 28033/0021 SLP053 T00001033
TAF
KBRL 
15nm NE 
292210Z 2922/3018 30015G28KT P6SM BKN040 FM292300 30020G30KT P6SM BKN020 FM300800 31015G24KT P6SM SCT050
NOTAMs
Click for the latest NOTAMs
NOTAMs are issued by the DoD/FAA and will open in a separate window not controlled by AirNav.

 

 
 

Would you like to see your business listed on this page?

 If your business provides an interesting product or service to pilots, flight crews, aircraft, or users of the Winchester Airport, you should consider listing it here.  To start the listing process, click on the button below
 
Add a business
 

Other Pages about Winchester Airport

Update a link
 
Copyright © AirNav, LLC. All rights reserved. Privacy Policy  Contact